createdAt,value
2022-08-02T00:00:10.002Z,76.84
2022-08-02T00:01:10.045Z,76.74
2022-08-02T00:02:10.215Z,76.74
2022-08-02T00:03:09.982Z,76.43
2022-08-02T00:04:09.984Z,76.03
2022-08-02T00:05:09.945Z,76.03
2022-08-02T00:06:09.934Z,76.34
2022-08-02T00:07:09.924Z,76.37
2022-08-02T00:08:09.922Z,76.47
2022-08-02T00:09:09.925Z,76.67
2022-08-02T00:10:09.907Z,76.67
2022-08-02T00:11:09.886Z,76.47
2022-08-02T00:12:10.139Z,76.47
2022-08-02T00:13:09.875Z,76.47
2022-08-02T00:14:09.879Z,76.67
2022-08-02T00:15:09.848Z,76.97
2022-08-02T00:16:10.829Z,76.97
2022-08-02T00:17:10.817Z,76.97
2022-08-02T00:18:09.810Z,76.97
2022-08-02T00:19:09.821Z,77.08
2022-08-02T00:20:09.799Z,77.08
2022-08-02T00:21:09.780Z,77.17
2022-08-02T00:22:10.113Z,77.31
2022-08-02T00:23:09.760Z,77.42
2022-08-02T00:24:29.031Z,77.42
2022-08-02T00:25:10.734Z,76.87
2022-08-02T00:26:09.736Z,76.81
2022-08-02T00:27:09.830Z,76.71
2022-08-02T00:28:09.702Z,76.71
2022-08-02T00:29:09.734Z,76.81
2022-08-02T00:30:09.685Z,76.91
2022-08-02T00:31:09.687Z,77.01
2022-08-02T00:32:09.955Z,77.01
2022-08-02T00:33:09.656Z,76.71
2022-08-02T00:34:28.573Z,76.81
2022-08-02T00:35:10.655Z,76.71
2022-08-02T00:36:09.625Z,76.71
2022-08-02T00:37:09.619Z,76.81
2022-08-02T00:38:09.617Z,76.81
2022-08-02T00:39:35.356Z,76.91
2022-08-02T00:40:10.615Z,76.91
2022-08-02T00:41:09.568Z,77.01
2022-08-02T00:42:09.958Z,76.91
2022-08-02T00:43:09.548Z,76.81
2022-08-02T00:44:09.538Z,76.51
2022-08-02T00:45:09.551Z,76.20
2022-08-02T00:46:09.528Z,76.51
2022-08-02T00:47:09.518Z,76.31
2022-08-02T00:48:09.500Z,76.40
2022-08-02T00:49:09.541Z,76.51
2022-08-02T00:50:09.506Z,76.71
2022-08-02T00:51:09.467Z,76.61
2022-08-02T00:52:09.659Z,76.20
2022-08-02T00:53:09.443Z,76.31
2022-08-02T00:54:09.444Z,76.31
2022-08-02T00:55:09.442Z,76.31
2022-08-02T00:56:09.413Z,76.40
2022-08-02T00:57:09.399Z,76.40
2022-08-02T00:58:09.405Z,76.00
2022-08-02T00:59:09.373Z,75.80
2022-08-02T01:00:09.393Z,75.70
2022-08-02T01:01:09.420Z,75.60
2022-08-02T01:02:09.816Z,75.50
2022-08-02T01:03:09.346Z,75.50
2022-08-02T01:04:09.326Z,75.80
2022-08-02T01:05:09.343Z,75.80
2022-08-02T01:06:12.314Z,75.90
2022-08-02T01:07:12.072Z,75.90
2022-08-02T01:08:09.290Z,75.90
2022-08-02T01:09:09.279Z,75.80
2022-08-02T01:10:09.289Z,75.60
2022-08-02T01:11:09.252Z,75.50
2022-08-02T01:12:09.670Z,75.43
2022-08-02T01:13:09.238Z,75.63
2022-08-02T01:14:09.224Z,75.74
2022-08-02T01:15:09.230Z,75.94
2022-08-02T01:16:09.204Z,76.24
2022-08-02T01:17:09.192Z,76.34
2022-08-02T01:18:09.185Z,76.34
2022-08-02T01:19:09.171Z,76.34
2022-08-02T01:20:10.185Z,76.14
2022-08-02T01:21:09.141Z,76.04
2022-08-02T01:22:09.339Z,75.94
2022-08-02T01:23:09.125Z,75.94
2022-08-02T01:24:09.374Z,75.84
2022-08-02T01:25:09.125Z,75.63
2022-08-02T01:26:09.093Z,75.94
2022-08-02T01:27:09.075Z,75.74
2022-08-02T01:28:09.073Z,75.63
2022-08-02T01:29:09.055Z,75.63
2022-08-02T01:30:09.075Z,75.74
2022-08-02T01:31:09.039Z,76.04
2022-08-02T01:32:09.296Z,76.14
2022-08-02T01:33:09.026Z,76.28
2022-08-02T01:34:09.019Z,76.07
2022-08-02T01:35:09.033Z,75.98
2022-08-02T01:36:08.989Z,75.87
2022-08-02T01:37:08.968Z,75.98
2022-08-02T01:38:08.968Z,75.98
2022-08-02T01:39:08.959Z,75.98
2022-08-02T01:40:08.969Z,76.07
2022-08-02T01:41:08.929Z,76.07
2022-08-02T01:42:09.161Z,75.98
2022-08-02T01:43:08.911Z,75.87
2022-08-02T01:44:08.908Z,75.77
2022-08-02T01:45:08.911Z,75.57
2022-08-02T01:46:08.881Z,75.67
2022-08-02T01:47:08.874Z,75.98
2022-08-02T01:48:08.860Z,75.98
2022-08-02T01:49:09.626Z,76.07
2022-08-02T01:50:08.882Z,75.98
2022-08-02T01:51:08.912Z,75.77
2022-08-02T01:52:09.185Z,75.77
2022-08-02T01:53:08.803Z,75.87
2022-08-02T01:54:08.796Z,75.77
2022-08-02T01:55:10.061Z,75.87
2022-08-02T01:56:09.765Z,76.07
2022-08-02T01:57:08.765Z,76.01
2022-08-02T01:58:08.747Z,76.31
2022-08-02T01:59:08.735Z,76.62
2022-08-02T02:00:08.747Z,76.62
2022-08-02T02:01:08.749Z,76.82
2022-08-02T02:02:10.052Z,76.72
2022-08-02T02:03:08.687Z,76.92
2022-08-02T02:04:08.698Z,76.92
2022-08-02T02:05:08.698Z,77.06
2022-08-02T02:06:08.667Z,77.06
2022-08-02T02:07:08.648Z,77.12
2022-08-02T02:08:08.640Z,76.82
2022-08-02T02:09:08.630Z,76.82
2022-08-02T02:10:08.639Z,76.82
2022-08-02T02:12:06.322Z,76.62
2022-08-02T02:12:13.505Z,76.51
2022-08-02T02:13:08.582Z,76.31
2022-08-02T02:14:08.598Z,76.31
2022-08-02T02:15:08.583Z,76.42
2022-08-02T02:16:08.552Z,76.31
2022-08-02T02:17:08.542Z,76.21
2022-08-02T02:18:12.615Z,76.01
2022-08-02T02:19:08.515Z,75.81
2022-08-02T02:20:08.557Z,76.01
2022-08-02T02:21:08.526Z,76.11
2022-08-02T02:22:08.897Z,75.84
2022-08-02T02:23:08.476Z,76.04
2022-08-02T02:24:11.849Z,76.25
2022-08-02T02:25:08.474Z,76.35
2022-08-02T02:26:08.449Z,76.35
2022-08-02T02:27:08.436Z,76.65
2022-08-02T02:28:08.427Z,76.65
2022-08-02T02:29:08.408Z,76.95
2022-08-02T02:30:08.428Z,76.95
2022-08-02T02:31:08.398Z,77.06
2022-08-02T02:32:08.726Z,76.86
2022-08-02T02:33:08.368Z,76.95
2022-08-02T02:34:08.358Z,76.55
2022-08-02T02:35:08.371Z,76.25
2022-08-02T02:36:08.329Z,76.15
2022-08-02T02:37:08.333Z,76.15
2022-08-02T02:38:08.319Z,76.59
2022-08-02T02:39:13.415Z,76.79
2022-08-02T02:40:09.313Z,77.19
2022-08-02T02:41:08.282Z,76.99
2022-08-02T02:42:08.608Z,76.86
2022-08-02T02:43:08.277Z,76.75
2022-08-02T02:44:08.254Z,76.75
2022-08-02T02:45:08.246Z,76.75
2022-08-02T02:46:08.243Z,76.45
2022-08-02T02:47:08.223Z,76.65
2022-08-02T02:48:08.222Z,76.55
2022-08-02T02:49:08.224Z,76.35
2022-08-02T02:50:08.184Z,76.25
2022-08-02T02:51:08.355Z,76.15
2022-08-02T02:52:09.445Z,76.18
2022-08-02T02:53:08.159Z,76.08
2022-08-02T02:54:33.515Z,76.18
2022-08-02T02:55:09.136Z,76.28
2022-08-02T02:56:08.148Z,76.28
2022-08-02T02:57:08.117Z,76.28
2022-08-02T02:58:08.098Z,76.89
2022-08-02T02:59:08.088Z,77.03
2022-08-02T03:00:08.079Z,77.03
2022-08-02T03:01:08.144Z,77.13
2022-08-02T03:02:08.059Z,77.33
2022-08-02T03:03:08.050Z,77.13
2022-08-02T03:04:08.039Z,77.03
2022-08-02T03:05:08.041Z,76.93
2022-08-02T03:06:15.049Z,76.79
2022-08-02T03:07:09.010Z,76.69
2022-08-02T03:08:08.000Z,76.39
2022-08-02T03:09:07.996Z,76.39
2022-08-02T03:10:07.984Z,76.28
2022-08-02T03:11:08.002Z,76.08
2022-08-02T03:12:08.139Z,76.18
2022-08-02T03:13:07.968Z,75.98
2022-08-02T03:14:07.932Z,75.88
2022-08-02T03:15:07.953Z,75.78
2022-08-02T03:16:07.933Z,75.68
2022-08-02T03:17:07.904Z,75.78
2022-08-02T03:18:07.894Z,75.92
2022-08-02T03:19:07.885Z,76.22
2022-08-02T03:20:07.876Z,76.52
2022-08-02T03:21:07.903Z,76.62
2022-08-02T03:22:07.922Z,76.42
2022-08-02T03:23:07.846Z,76.22
2022-08-02T03:24:07.836Z,76.22
2022-08-02T03:25:07.829Z,76.22
2022-08-02T03:26:07.828Z,76.22
2022-08-02T03:27:07.807Z,76.22
2022-08-02T03:28:07.798Z,76.32
2022-08-02T03:29:09.819Z,76.32
2022-08-02T03:30:07.770Z,76.52
2022-08-02T03:31:07.738Z,76.82
2022-08-02T03:32:07.770Z,76.97
2022-08-02T03:33:07.753Z,77.17
2022-08-02T03:34:07.740Z,77.17
2022-08-02T03:35:07.721Z,77.37
2022-08-02T03:36:07.733Z,77.47
2022-08-02T03:37:07.701Z,77.26
2022-08-02T03:38:08.503Z,77.17
2022-08-02T03:39:07.682Z,77.06
2022-08-02T03:40:07.666Z,77.17
2022-08-02T03:41:07.684Z,77.17
2022-08-02T03:42:07.829Z,77.26
2022-08-02T03:43:07.643Z,77.26
2022-08-02T03:44:07.625Z,77.26
2022-08-02T03:45:08.864Z,77.47
2022-08-02T03:46:07.593Z,77.37
2022-08-02T03:47:07.545Z,77.06
2022-08-02T03:48:34.897Z,77.17
2022-08-02T03:49:08.689Z,77.26
2022-08-02T03:50:07.557Z,77.37
2022-08-02T03:51:07.577Z,77.26
2022-08-02T03:52:07.546Z,77.26
2022-08-02T03:53:07.488Z,77.06
2022-08-02T03:54:08.469Z,77.06
2022-08-02T03:55:07.469Z,76.86
2022-08-02T03:56:07.476Z,76.76
2022-08-02T03:57:07.442Z,76.97
2022-08-02T03:58:07.419Z,77.06
2022-08-02T03:59:07.417Z,77.06
2022-08-02T04:00:07.412Z,77.06
2022-08-02T04:01:07.486Z,77.26
2022-08-02T04:02:07.512Z,77.37
2022-08-02T04:03:07.372Z,77.47
2022-08-02T04:04:07.363Z,77.37
2022-08-02T04:05:07.360Z,77.47
2022-08-02T04:06:07.365Z,77.61
2022-08-02T04:07:07.812Z,77.81
2022-08-02T04:08:35.797Z,77.91
2022-08-02T04:09:08.313Z,77.91
2022-08-02T04:10:07.295Z,77.81
2022-08-02T04:11:07.314Z,77.61
2022-08-02T04:12:07.326Z,77.71
2022-08-02T04:13:07.266Z,77.81
2022-08-02T04:14:07.268Z,78.21
2022-08-02T04:15:07.248Z,78.52
2022-08-02T04:16:07.256Z,78.31
2022-08-02T04:17:07.226Z,78.31
2022-08-02T04:18:07.207Z,78.08
2022-08-02T04:19:07.208Z,77.87
2022-08-02T04:20:07.196Z,77.67
2022-08-02T04:21:07.199Z,77.57
2022-08-02T04:22:07.171Z,77.77
2022-08-02T04:23:07.159Z,77.77
2022-08-02T04:24:07.149Z,77.97
2022-08-02T04:25:07.139Z,77.77
2022-08-02T04:26:07.908Z,77.77
2022-08-02T04:27:33.486Z,77.77
2022-08-02T04:28:17.379Z,78.08
2022-08-02T04:29:08.111Z,78.38
2022-08-02T04:30:07.095Z,78.38
2022-08-02T04:31:07.103Z,78.17
2022-08-02T04:32:07.061Z,77.97
2022-08-02T04:33:07.052Z,78.28
2022-08-02T04:34:07.044Z,78.28
2022-08-02T04:35:22.484Z,78.08
2022-08-02T04:36:08.048Z,77.97
2022-08-02T04:37:07.015Z,77.97
2022-08-02T04:38:09.584Z,78.08
2022-08-02T04:39:06.994Z,77.97
2022-08-02T04:40:06.985Z,78.28
2022-08-02T04:41:06.995Z,78.38
2022-08-02T04:42:06.964Z,78.52
2022-08-02T04:43:06.956Z,78.82
2022-08-02T04:44:06.936Z,78.82
2022-08-02T04:45:06.936Z,79.02
2022-08-02T04:46:06.939Z,79.49
2022-08-02T04:47:07.095Z,79.19
2022-08-02T04:48:06.935Z,79.29
2022-08-02T04:49:06.937Z,79.49
2022-08-02T04:50:06.879Z,79.59
2022-08-02T04:51:06.889Z,79.49
2022-08-02T04:52:06.857Z,79.43
2022-08-02T04:53:06.848Z,79.59
2022-08-02T04:54:09.221Z,79.90
2022-08-02T04:55:06.874Z,80.10
2022-08-02T04:56:06.841Z,80.20
2022-08-02T04:57:06.809Z,80.50
2022-08-02T04:58:23.752Z,81.01
2022-08-02T04:59:07.797Z,81.31
2022-08-02T05:00:06.773Z,81.62
2022-08-02T05:01:06.865Z,81.82
2022-08-02T05:02:06.754Z,81.92
2022-08-02T05:03:06.743Z,82.32
2022-08-02T05:04:06.724Z,82.42
2022-08-02T05:05:10.145Z,82.62
2022-08-02T05:06:18.629Z,82.73
2022-08-02T05:07:07.695Z,82.83
2022-08-02T05:08:06.684Z,82.79
2022-08-02T05:09:06.686Z,82.69
2022-08-02T05:10:06.664Z,82.89
2022-08-02T05:11:06.676Z,83.19
2022-08-02T05:12:06.646Z,83.19
2022-08-02T05:13:06.647Z,83.09
2022-08-02T05:14:06.630Z,83.19
2022-08-02T05:15:06.617Z,83.29
2022-08-02T05:16:06.627Z,83.40
2022-08-02T05:17:06.608Z,83.40
2022-08-02T05:18:06.589Z,83.50
2022-08-02T05:19:06.578Z,83.60
2022-08-02T05:20:06.560Z,83.40
2022-08-02T05:21:06.581Z,83.40
2022-08-02T05:22:06.541Z,83.50
2022-08-02T05:23:06.544Z,83.40
2022-08-02T05:24:06.521Z,82.99
2022-08-02T05:25:06.512Z,82.65
2022-08-02T05:26:06.521Z,82.65
2022-08-02T05:27:16.932Z,82.65
2022-08-02T05:28:11.473Z,82.75
2022-08-02T05:29:06.481Z,82.75
2022-08-02T05:30:06.453Z,82.75
2022-08-02T05:31:06.454Z,82.65
2022-08-02T05:32:07.498Z,82.65
2022-08-02T05:33:06.444Z,82.65
2022-08-02T05:34:11.358Z,82.51
2022-08-02T05:35:07.407Z,82.41
2022-08-02T05:36:06.397Z,82.10
2022-08-02T05:37:09.691Z,81.80
2022-08-02T05:38:10.071Z,81.80
2022-08-02T05:39:06.377Z,81.70
2022-08-02T05:40:12.660Z,82.01
2022-08-02T05:41:07.348Z,82.01
2022-08-02T05:42:06.376Z,81.90
2022-08-02T05:43:06.331Z,81.70
2022-08-02T05:44:06.308Z,82.01
2022-08-02T05:45:06.301Z,82.01
2022-08-02T05:46:06.289Z,82.10
2022-08-02T05:47:06.301Z,82.01
2022-08-02T05:48:06.271Z,82.01
2022-08-02T05:49:06.306Z,82.21
2022-08-02T05:50:06.253Z,82.31
2022-08-02T05:51:06.244Z,82.61
2022-08-02T05:52:06.252Z,82.61
2022-08-02T05:53:06.231Z,82.61
2022-08-02T05:54:06.202Z,82.71
2022-08-02T05:55:06.203Z,82.81
2022-08-02T05:56:08.606Z,82.91
2022-08-02T05:57:06.204Z,83.01
2022-08-02T05:58:06.176Z,83.01
2022-08-02T05:59:06.161Z,82.91
2022-08-02T06:00:06.145Z,82.81
2022-08-02T06:01:06.138Z,83.01
2022-08-02T06:02:06.202Z,83.12
2022-08-02T06:03:06.116Z,83.12
2022-08-02T06:04:06.097Z,83.12
2022-08-02T06:05:06.096Z,83.12
2022-08-02T06:06:06.076Z,83.22
2022-08-02T06:07:06.094Z,83.32
2022-08-02T06:08:07.658Z,83.42
2022-08-02T06:09:06.048Z,83.62
2022-08-02T06:10:06.038Z,83.72
2022-08-02T06:11:06.029Z,83.62
2022-08-02T06:12:06.038Z,83.72
2022-08-02T06:13:06.015Z,83.72
2022-08-02T06:14:05.988Z,83.82
2022-08-02T06:15:05.980Z,83.62
2022-08-02T06:16:05.969Z,83.62
2022-08-02T06:17:06.988Z,83.48
2022-08-02T06:18:05.953Z,83.38
2022-08-02T06:19:05.950Z,83.28
2022-08-02T06:20:05.921Z,83.48
2022-08-02T06:22:34.891Z,82.98
2022-08-02T06:22:42.238Z,83.07
2022-08-02T06:23:10.748Z,83.38
2022-08-02T06:24:06.886Z,83.28
2022-08-02T06:25:06.339Z,83.18
2022-08-02T06:26:05.864Z,83.38
2022-08-02T06:27:05.878Z,83.07
2022-08-02T06:28:11.447Z,83.18
2022-08-02T06:29:06.836Z,83.38
2022-08-02T06:30:05.816Z,83.48
2022-08-02T06:31:05.821Z,83.18
2022-08-02T06:32:05.817Z,83.48
2022-08-02T06:33:05.798Z,83.58
2022-08-02T06:34:05.777Z,83.48
2022-08-02T06:35:05.767Z,83.78
2022-08-02T06:36:05.757Z,83.88
2022-08-02T06:37:05.787Z,83.98
2022-08-02T06:38:05.727Z,84.09
2022-08-02T06:39:05.723Z,84.19
2022-08-02T06:40:05.711Z,84.39
2022-08-02T06:41:05.706Z,84.59
2022-08-02T06:42:05.711Z,84.49
2022-08-02T06:43:05.690Z,84.39
2022-08-02T06:44:33.792Z,84.39
2022-08-02T06:45:06.662Z,84.55
2022-08-02T06:46:57.069Z,84.55
2022-08-02T06:47:11.241Z,84.15
2022-08-02T06:48:06.622Z,84.25
2022-08-02T06:49:05.715Z,84.75
2022-08-02T06:50:05.678Z,84.61
2022-08-02T06:51:05.584Z,84.71
2022-08-02T06:52:05.604Z,84.21
2022-08-02T06:53:05.576Z,84.11
2022-08-02T06:54:05.555Z,83.80
2022-08-02T06:55:05.548Z,83.91
2022-08-02T06:56:07.139Z,84.21
2022-08-02T06:57:05.546Z,84.11
2022-08-02T06:58:05.516Z,83.91
2022-08-02T06:59:06.179Z,83.87
2022-08-02T07:00:05.497Z,83.97
2022-08-02T07:01:05.512Z,83.66
2022-08-02T07:02:05.497Z,83.36
2022-08-02T07:03:05.457Z,83.46
2022-08-02T07:04:05.449Z,83.56
2022-08-02T07:05:05.446Z,83.97
2022-08-02T07:06:05.429Z,83.93
2022-08-02T07:07:05.459Z,84.03
2022-08-02T07:08:05.410Z,84.03
2022-08-02T07:09:21.831Z,83.62
2022-08-02T07:10:06.390Z,83.32
2022-08-02T07:11:05.371Z,83.32
2022-08-02T07:12:05.425Z,83.52
2022-08-02T07:13:05.353Z,82.98
2022-08-02T07:14:05.351Z,82.98
2022-08-02T07:15:05.333Z,82.98
2022-08-02T07:16:05.326Z,82.48
2022-08-02T07:17:05.412Z,82.88
2022-08-02T07:18:05.304Z,82.68
2022-08-02T07:19:05.284Z,82.54
2022-08-02T07:20:05.285Z,82.54
2022-08-02T07:21:05.264Z,82.44
2022-08-02T07:22:05.400Z,82.04
2022-08-02T07:23:05.245Z,81.93
2022-08-02T07:24:05.237Z,82.14
2022-08-02T07:25:05.226Z,82.14
2022-08-02T07:26:06.049Z,81.99
2022-08-02T07:27:13.147Z,81.70
2022-08-02T07:28:06.199Z,82.10
2022-08-02T07:29:05.196Z,82.10
2022-08-02T07:30:05.176Z,81.99
2022-08-02T07:31:05.159Z,82.10
2022-08-02T07:32:05.352Z,82.36
2022-08-02T07:33:05.138Z,81.96
2022-08-02T07:34:05.140Z,81.35
2022-08-02T07:35:06.879Z,81.15
2022-08-02T07:36:05.489Z,80.65
2022-08-02T07:37:05.391Z,80.95
2022-08-02T07:38:05.094Z,80.95
2022-08-02T07:39:05.081Z,81.15
2022-08-02T07:40:08.796Z,80.81
2022-08-02T07:41:06.052Z,81.32
2022-08-02T07:42:05.369Z,82.02
2022-08-02T07:43:05.033Z,81.01
2022-08-02T07:44:05.031Z,80.71
2022-08-02T07:45:05.025Z,81.32
2022-08-02T07:46:05.003Z,81.72
2022-08-02T07:47:05.013Z,80.91
2022-08-02T07:48:04.985Z,80.47
2022-08-02T07:49:05.064Z,80.68
2022-08-02T07:50:04.968Z,80.57
2022-08-02T07:51:04.946Z,80.17
2022-08-02T07:52:04.966Z,80.17
2022-08-02T07:53:04.927Z,79.83
2022-08-02T07:54:05.079Z,80.24
2022-08-02T07:55:04.911Z,78.63
2022-08-02T07:56:04.908Z,78.93
2022-08-02T07:57:04.908Z,78.63
2022-08-02T07:58:04.878Z,78.73
2022-08-02T07:59:04.867Z,79.03
2022-08-02T08:00:04.860Z,79.53
2022-08-02T08:01:04.910Z,79.90
2022-08-02T08:02:04.958Z,79.39
2022-08-02T08:03:04.822Z,79.29
2022-08-02T08:04:04.823Z,79.09
2022-08-02T08:05:04.801Z,78.49
2022-08-02T08:06:04.792Z,78.39
2022-08-02T08:07:04.802Z,78.55
2022-08-02T08:08:04.776Z,78.45
2022-08-02T08:09:04.773Z,78.35
2022-08-02T08:10:04.756Z,76.34
2022-08-02T08:11:04.742Z,75.45
2022-08-02T08:12:04.757Z,76.65
2022-08-02T08:13:04.724Z,76.61
2022-08-02T08:14:04.715Z,76.91
2022-08-02T08:15:04.695Z,75.41
2022-08-02T08:16:04.696Z,75.51
2022-08-02T08:17:04.697Z,75.87
2022-08-02T08:18:04.678Z,76.07
2022-08-02T08:19:04.657Z,76.37
2022-08-02T08:20:04.649Z,75.97
2022-08-02T08:21:04.637Z,73.63
2022-08-02T08:22:04.659Z,72.93
2022-08-02T08:23:04.618Z,72.89
2022-08-02T08:24:04.609Z,71.39
2022-08-02T08:25:04.622Z,71.06
2022-08-02T08:26:04.594Z,71.56
2022-08-02T08:27:04.599Z,71.76
2022-08-02T08:28:04.560Z,71.06
2022-08-02T08:29:04.552Z,70.53
2022-08-02T08:30:04.541Z,70.92
2022-08-02T08:31:04.531Z,71.42
2022-08-02T08:32:04.542Z,70.83
2022-08-02T08:33:04.551Z,71.53
2022-08-02T08:34:04.503Z,71.23
2022-08-02T08:35:04.484Z,72.23
2022-08-02T08:36:04.493Z,72.33
2022-08-02T08:37:04.493Z,72.42
2022-08-02T08:38:07.730Z,71.29
2022-08-02T08:39:04.455Z,68.69
2022-08-02T08:40:04.436Z,69.16
2022-08-02T08:41:04.427Z,69.46
2022-08-02T08:42:04.418Z,68.33
2022-08-02T08:43:04.424Z,68.73
2022-08-02T08:44:04.397Z,69.02
2022-08-02T08:45:04.383Z,67.60
2022-08-02T08:46:04.378Z,68.19
2022-08-02T08:47:04.359Z,67.00
2022-08-02T08:48:04.378Z,66.20
2022-08-02T08:49:04.381Z,65.67
2022-08-02T08:50:04.329Z,65.17
2022-08-02T08:51:04.321Z,64.87
2022-08-02T08:52:04.322Z,65.44
2022-08-02T08:53:04.323Z,65.53
2022-08-02T08:54:04.293Z,65.73
2022-08-02T08:55:04.288Z,63.04
2022-08-02T08:56:04.270Z,63.61
2022-08-02T08:57:04.254Z,63.61
2022-08-02T08:58:04.273Z,63.48
2022-08-02T08:59:04.235Z,61.19
2022-08-02T09:00:04.225Z,61.29
2022-08-02T09:01:04.304Z,61.09
2022-08-02T09:02:17.795Z,60.99
2022-08-02T09:03:05.249Z,60.82
2022-08-02T09:04:04.186Z,60.02
2022-08-02T09:05:04.167Z,60.19
2022-08-02T09:06:05.091Z,59.89
2022-08-02T09:07:04.157Z,60.49
2022-08-02T09:08:04.187Z,59.89
2022-08-02T09:09:04.138Z,60.46
2022-08-02T09:10:04.119Z,59.77
2022-08-02T09:11:04.108Z,59.77
2022-08-02T09:12:04.101Z,60.53
2022-08-02T09:13:04.202Z,60.03
2022-08-02T09:14:05.080Z,59.83
2022-08-02T09:15:04.069Z,59.53
2022-08-02T09:16:13.028Z,59.31
2022-08-02T09:17:05.042Z,58.91
2022-08-02T09:18:04.061Z,58.71
2022-08-02T09:19:07.724Z,57.22
2022-08-02T09:20:04.013Z,56.40
2022-08-02T09:21:04.537Z,56.70
2022-08-02T09:22:04.004Z,56.79
2022-08-02T09:23:04.004Z,57.79
2022-08-02T09:24:03.993Z,57.36
2022-08-02T09:25:03.957Z,54.68
2022-08-02T09:26:07.374Z,54.97
2022-08-02T09:27:03.937Z,56.77
2022-08-02T09:28:03.967Z,56.37
2022-08-02T09:29:03.919Z,56.47
2022-08-02T09:30:12.685Z,55.27
2022-08-02T09:31:04.908Z,54.78
2022-08-02T09:32:03.892Z,55.87
2022-08-02T09:33:05.522Z,56.74
2022-08-02T09:34:03.878Z,55.65
2022-08-02T09:35:03.858Z,55.25
2022-08-02T09:36:05.865Z,55.65
2022-08-02T09:37:03.848Z,54.95
2022-08-02T09:38:03.852Z,55.42
2022-08-02T09:39:03.812Z,54.13
2022-08-02T09:40:03.813Z,53.14
2022-08-02T09:41:03.793Z,53.23
2022-08-02T09:42:03.792Z,53.93
2022-08-02T09:43:03.803Z,53.31
2022-08-02T09:44:06.451Z,53.31
2022-08-02T09:45:03.756Z,53.01
2022-08-02T09:46:03.758Z,52.19
2022-08-02T09:47:03.736Z,52.29
2022-08-02T09:48:03.754Z,52.39
2022-08-02T09:49:03.771Z,52.00
2022-08-02T09:50:03.718Z,52.89
2022-08-02T09:51:03.707Z,51.97
2022-08-02T09:52:03.688Z,50.28
2022-08-02T09:53:03.701Z,51.77
2022-08-02T09:54:08.921Z,51.47
2022-08-02T09:55:04.651Z,51.15
2022-08-02T09:56:03.650Z,51.65
2022-08-02T09:57:03.640Z,50.73
2022-08-02T09:58:03.651Z,51.62
2022-08-02T09:59:03.614Z,48.92
2022-08-02T10:00:03.602Z,49.91
2022-08-02T10:01:03.712Z,50.01
2022-08-02T10:02:17.785Z,49.91
2022-08-02T10:03:04.593Z,48.21
2022-08-02T10:04:03.579Z,48.90
2022-08-02T10:05:03.551Z,49.29
2022-08-02T10:06:03.563Z,49.07
2022-08-02T10:07:03.546Z,49.37
2022-08-02T10:08:03.557Z,47.99
2022-08-02T10:09:03.512Z,48.38
2022-08-02T10:10:03.509Z,46.88
2022-08-02T10:11:03.737Z,47.17
2022-08-02T10:12:03.665Z,47.17
2022-08-02T10:13:03.498Z,47.96
2022-08-02T10:14:03.459Z,47.05
2022-08-02T10:15:03.449Z,47.34
2022-08-02T10:16:03.483Z,47.81
2022-08-02T10:17:03.439Z,46.63
2022-08-02T10:18:12.972Z,46.22
2022-08-02T10:19:04.409Z,45.92
2022-08-02T10:20:05.021Z,45.03
2022-08-02T10:21:03.383Z,44.34
2022-08-02T10:22:03.382Z,44.32
2022-08-02T10:23:03.391Z,45.70
2022-08-02T10:24:03.363Z,46.48
2022-08-02T10:25:03.345Z,44.98
2022-08-02T10:26:03.356Z,45.97
2022-08-02T10:27:03.324Z,45.46
2022-08-02T10:28:05.536Z,45.46
2022-08-02T10:29:03.305Z,45.56
2022-08-02T10:30:03.298Z,46.15
2022-08-02T10:31:03.871Z,44.96
2022-08-02T10:32:03.279Z,44.18
2022-08-02T10:33:03.287Z,45.95
2022-08-02T10:34:03.258Z,44.35
2022-08-02T10:35:19.738Z,43.76
2022-08-02T10:36:07.351Z,44.25
2022-08-02T10:37:03.228Z,44.65
2022-08-02T10:38:03.249Z,44.92
2022-08-02T10:39:03.210Z,44.03
2022-08-02T10:40:03.204Z,44.82
2022-08-02T10:41:03.193Z,44.62
2022-08-02T10:42:03.183Z,44.60
2022-08-02T10:43:03.190Z,45.19
2022-08-02T10:44:03.162Z,44.70
2022-08-02T10:45:03.150Z,45.07
2022-08-02T10:46:03.149Z,44.78
2022-08-02T10:47:03.124Z,42.81
2022-08-02T10:48:03.144Z,42.61
2022-08-02T10:49:23.878Z,43.60
2022-08-02T10:50:04.144Z,42.41
2022-08-02T10:51:03.085Z,42.61
2022-08-02T10:52:03.113Z,41.63
2022-08-02T10:53:03.086Z,36.71
2022-08-02T10:54:03.057Z,39.47
2022-08-02T10:55:03.047Z,39.07
2022-08-02T10:56:04.058Z,37.40
2022-08-02T10:57:03.028Z,36.88
2022-08-02T10:58:03.039Z,38.36
2022-08-02T10:59:03.001Z,38.36
2022-08-02T11:00:02.999Z,37.07
2022-08-02T11:01:03.047Z,37.65
2022-08-02T11:02:02.981Z,37.44
2022-08-02T11:03:03.001Z,37.34
2022-08-02T11:04:07.075Z,36.95
2022-08-02T11:05:03.952Z,38.03
2022-08-02T11:06:02.935Z,37.93
2022-08-02T11:07:02.933Z,36.95
2022-08-02T11:08:02.935Z,38.11
2022-08-02T11:09:04.427Z,36.74
2022-08-02T11:10:02.902Z,35.66
2022-08-02T11:11:02.893Z,36.44
2022-08-02T11:12:02.895Z,34.28
2022-08-02T11:13:02.896Z,34.26
2022-08-02T11:14:02.898Z,34.58
2022-08-02T11:15:02.854Z,36.03
2022-08-02T11:16:06.511Z,35.24
2022-08-02T11:17:03.829Z,35.54
2022-08-02T11:18:02.819Z,35.23
2022-08-02T11:19:02.829Z,35.33
2022-08-02T11:20:02.804Z,35.62
2022-08-02T11:21:02.798Z,35.11
2022-08-02T11:22:02.781Z,35.60
2022-08-02T11:23:02.773Z,35.97
2022-08-02T11:24:02.782Z,33.62
2022-08-02T11:25:02.752Z,33.05
2022-08-02T11:26:10.730Z,33.64
2022-08-02T11:27:03.733Z,34.92
2022-08-02T11:28:02.723Z,36.09
2022-08-02T11:29:02.740Z,35.02
2022-08-02T11:30:02.707Z,36.09
2022-08-02T11:31:03.096Z,35.11
2022-08-02T11:32:02.688Z,35.31
2022-08-02T11:33:02.689Z,35.50
2022-08-02T11:34:05.388Z,35.60
2022-08-02T11:35:03.657Z,35.50
2022-08-02T11:36:02.639Z,35.39
2022-08-02T11:37:02.642Z,34.70
2022-08-02T11:38:02.625Z,36.45
2022-08-02T11:39:02.670Z,33.31
2022-08-02T11:40:02.612Z,34.00
2022-08-02T11:41:06.160Z,34.61
2022-08-02T11:42:03.581Z,33.43
2022-08-02T11:43:02.579Z,34.90
2022-08-02T11:44:02.589Z,35.27
2022-08-02T11:45:02.552Z,35.37
2022-08-02T11:46:02.548Z,34.98
2022-08-02T11:47:02.545Z,35.68
2022-08-02T11:48:02.523Z,34.52
2022-08-02T11:49:02.564Z,34.42
2022-08-02T11:50:03.504Z,35.99
2022-08-02T11:51:02.495Z,35.91
2022-08-02T11:52:02.494Z,35.82
2022-08-02T11:53:02.476Z,36.13
2022-08-02T11:54:02.487Z,37.30
2022-08-02T11:55:02.458Z,37.40
2022-08-02T11:56:02.446Z,37.01
2022-08-02T11:57:02.439Z,36.72
2022-08-02T11:58:04.161Z,35.64
2022-08-02T11:59:02.438Z,35.36
2022-08-02T12:00:02.410Z,37.23
2022-08-02T12:01:02.401Z,36.95
2022-08-02T12:02:02.391Z,36.97
2022-08-02T12:03:02.417Z,37.76
2022-08-02T12:04:02.382Z,36.99
2022-08-02T12:05:02.362Z,37.65
2022-08-02T12:06:06.353Z,37.95
2022-08-02T12:07:02.342Z,38.93
2022-08-02T12:08:02.330Z,37.85
2022-08-02T12:09:02.344Z,37.77
2022-08-02T12:10:02.304Z,38.46
2022-08-02T12:11:02.298Z,38.85
2022-08-02T12:12:02.286Z,37.77
2022-08-02T12:13:02.289Z,37.67
2022-08-02T12:14:02.291Z,37.59
2022-08-02T12:15:02.257Z,38.28
2022-08-02T12:16:05.922Z,38.68
2022-08-02T12:17:03.239Z,38.48
2022-08-02T12:18:02.228Z,38.38
2022-08-02T12:19:02.249Z,39.37
2022-08-02T12:20:02.208Z,37.79
2022-08-02T12:21:02.206Z,37.79
2022-08-02T12:22:02.181Z,38.09
2022-08-02T12:23:02.183Z,37.59
2022-08-02T12:24:02.181Z,39.37
2022-08-02T12:25:02.165Z,36.79
2022-08-02T12:26:02.143Z,37.57
2022-08-02T12:27:02.142Z,36.69
2022-08-02T12:28:02.134Z,35.41
2022-08-02T12:29:02.145Z,36.40
2022-08-02T12:30:02.126Z,35.71
2022-08-02T12:31:02.104Z,35.21
2022-08-02T12:32:02.094Z,35.90
2022-08-02T12:33:02.086Z,36.20
2022-08-02T12:34:02.088Z,35.31
2022-08-02T12:35:02.067Z,35.80
2022-08-02T12:36:02.065Z,35.80
2022-08-02T12:37:02.047Z,35.31
2022-08-02T12:38:02.032Z,36.10
2022-08-02T12:39:02.049Z,35.90
2022-08-02T12:40:02.020Z,35.02
2022-08-02T12:41:02.013Z,36.69
2022-08-02T12:42:02.991Z,37.38
2022-08-02T12:43:01.982Z,37.77
2022-08-02T12:44:01.993Z,37.95
2022-08-02T12:45:01.964Z,36.87
2022-08-02T12:46:01.964Z,37.46
2022-08-02T12:47:01.973Z,36.59
2022-08-02T12:48:01.933Z,36.59
2022-08-02T12:49:17.456Z,37.08
2022-08-02T12:50:02.948Z,38.66
2022-08-02T12:51:01.904Z,36.99
2022-08-02T12:52:04.999Z,37.67